createdAt,value
2022-10-07T00:02:25.972Z,10.96
2022-10-07T00:04:53.532Z,10.96
2022-10-07T00:07:20.971Z,10.90
2022-10-07T00:09:48.495Z,10.84
2022-10-07T00:12:15.935Z,10.73
2022-10-07T00:14:43.544Z,10.70
2022-10-07T00:17:11.223Z,10.53
2022-10-07T00:19:40.143Z,10.34
2022-10-07T00:22:07.608Z,10.12
2022-10-07T00:24:35.092Z,10.16
2022-10-07T00:27:02.651Z,10.23
2022-10-07T00:29:30.124Z,10.41
2022-10-07T00:31:57.704Z,10.32
2022-10-07T00:34:25.440Z,10.36
2022-10-07T00:36:54.260Z,10.42
2022-10-07T00:39:21.821Z,10.40
2022-10-07T00:41:50.666Z,10.39
2022-10-07T00:44:36.749Z,10.42
2022-10-07T00:47:05.777Z,10.36
2022-10-07T00:49:37.525Z,10.20
2022-10-07T00:52:06.449Z,10.10
2022-10-07T00:54:34.166Z,10.26
2022-10-07T00:57:01.656Z,10.36
2022-10-07T00:59:29.221Z,10.29
2022-10-07T01:01:56.815Z,10.33
2022-10-07T01:04:24.376Z,10.15
2022-10-07T01:06:51.871Z,10.08
2022-10-07T01:09:21.511Z,10.21
2022-10-07T01:11:51.863Z,10.21
2022-10-07T01:14:26.289Z,10.23
2022-10-07T01:16:58.372Z,10.23
2022-10-07T01:19:36.963Z,10.21
2022-10-07T01:22:11.468Z,10.32
2022-10-07T01:24:41.825Z,10.10
2022-10-07T01:27:15.285Z,10.03
2022-10-07T01:29:45.754Z,10.00
2022-10-07T01:32:17.285Z,9.96
2022-10-07T01:34:46.741Z,9.96
2022-10-07T01:37:16.218Z,10.02
2022-10-07T01:39:46.636Z,9.98
2022-10-07T01:42:15.512Z,9.99
2022-10-07T01:44:45.275Z,10.02
2022-10-07T01:47:12.784Z,10.02
2022-10-07T01:49:40.261Z,9.96
2022-10-07T01:52:24.035Z,9.76
2022-10-07T01:55:01.363Z,9.74
2022-10-07T01:57:35.249Z,9.68
2022-10-07T02:00:10.103Z,9.62
2022-10-07T02:02:51.986Z,9.55
2022-10-07T02:05:23.956Z,9.54
2022-10-07T02:08:02.706Z,9.41
2022-10-07T02:10:34.273Z,9.47
2022-10-07T02:13:09.241Z,9.44
2022-10-07T02:15:40.407Z,9.41
2022-10-07T02:18:09.425Z,9.41
2022-10-07T02:20:38.901Z,9.28
2022-10-07T02:23:08.735Z,9.15
2022-10-07T02:25:39.717Z,9.17
2022-10-07T02:28:10.518Z,9.22
2022-10-07T02:30:38.880Z,9.15
2022-10-07T02:33:07.854Z,9.23
2022-10-07T02:35:38.298Z,9.32
2022-10-07T02:38:09.074Z,9.32
2022-10-07T02:40:38.089Z,9.31
2022-10-07T02:43:08.372Z,9.33
2022-10-07T02:45:43.090Z,9.29
2022-10-07T02:48:15.042Z,9.29
2022-10-07T02:50:45.389Z,9.00
2022-10-07T02:53:13.838Z,9.07
2022-10-07T02:55:42.223Z,9.14
2022-10-07T02:58:11.446Z,9.06
2022-10-07T03:00:43.522Z,9.01
2022-10-07T03:03:11.035Z,8.90
2022-10-07T03:05:38.678Z,8.90
2022-10-07T03:08:08.329Z,8.97
2022-10-07T03:10:35.998Z,8.89
2022-10-07T03:13:04.860Z,8.97
2022-10-07T03:15:32.810Z,9.05
2022-10-07T03:18:01.711Z,8.94
2022-10-07T03:20:32.539Z,8.93
2022-10-07T03:23:00.406Z,9.03
2022-10-07T03:25:27.919Z,9.11
2022-10-07T03:27:55.401Z,9.16
2022-10-07T03:30:24.630Z,8.99
2022-10-07T03:32:52.234Z,8.90
2022-10-07T03:35:21.214Z,8.82
2022-10-07T03:37:48.697Z,8.63
2022-10-07T03:40:16.445Z,8.73
2022-10-07T03:42:43.956Z,8.72
2022-10-07T03:45:11.765Z,8.57
2022-10-07T03:47:39.338Z,8.59
2022-10-07T03:50:08.761Z,8.49
2022-10-07T03:52:37.732Z,8.34
2022-10-07T03:55:05.489Z,8.33
2022-10-07T03:57:53.354Z,8.50
2022-10-07T04:00:24.254Z,8.76
2022-10-07T04:02:52.140Z,8.82
2022-10-07T04:05:20.708Z,8.79
2022-10-07T04:07:50.368Z,8.61
2022-10-07T04:10:18.777Z,8.52
2022-10-07T04:12:48.064Z,8.44
2022-10-07T04:15:16.002Z,8.52
2022-10-07T04:17:44.777Z,8.62
2022-10-07T04:20:13.489Z,8.74
2022-10-07T04:22:41.030Z,8.70
2022-10-07T04:25:30.261Z,8.43
2022-10-07T04:27:58.730Z,8.43
2022-10-07T04:30:27.737Z,8.37
2022-10-07T04:32:55.582Z,8.31
2022-10-07T04:35:23.765Z,8.19
2022-10-07T04:37:51.282Z,8.34
2022-10-07T04:40:20.724Z,8.48
2022-10-07T04:43:06.286Z,8.41
2022-10-07T04:45:34.078Z,8.30
2022-10-07T04:48:01.728Z,8.07
2022-10-07T04:50:29.434Z,8.27
2022-10-07T04:52:57.220Z,8.23
2022-10-07T04:55:26.503Z,8.14
2022-10-07T04:57:54.047Z,8.23
2022-10-07T05:00:21.556Z,8.33
2022-10-07T05:02:50.460Z,8.28
2022-10-07T05:05:18.593Z,8.23
2022-10-07T05:07:50.260Z,8.17
2022-10-07T05:10:17.781Z,8.15
2022-10-07T05:12:46.746Z,8.11
2022-10-07T05:15:14.650Z,7.90
2022-10-07T05:17:43.791Z,7.86
2022-10-07T05:20:12.339Z,7.89
2022-10-07T05:22:40.150Z,7.98
2022-10-07T05:25:08.040Z,7.99
2022-10-07T05:27:35.525Z,8.09
2022-10-07T05:30:04.638Z,8.08
2022-10-07T05:32:32.118Z,8.16
2022-10-07T05:34:59.611Z,8.16
2022-10-07T05:37:27.086Z,8.30
2022-10-07T05:39:54.629Z,8.26
2022-10-07T05:42:22.178Z,8.31
2022-10-07T05:44:49.700Z,8.25
2022-10-07T05:47:18.894Z,8.18
2022-10-07T05:49:46.373Z,8.09
2022-10-07T05:52:13.862Z,8.10
2022-10-07T05:54:41.399Z,8.08
2022-10-07T05:57:09.007Z,7.94
2022-10-07T06:02:00.319Z,7.93
2022-10-07T06:04:28.486Z,7.94
2022-10-07T06:06:56.235Z,8.04
2022-10-07T06:09:41.568Z,8.01
2022-10-07T06:12:28.438Z,7.83
2022-10-07T06:14:56.166Z,7.77
2022-10-07T06:17:25.267Z,7.73
2022-10-07T06:19:52.969Z,7.29
2022-10-07T06:22:20.665Z,7.53
2022-10-07T06:24:48.405Z,7.64
2022-10-07T06:27:16.084Z,7.61
2022-10-07T06:29:43.848Z,7.56
2022-10-07T06:32:11.514Z,7.46
2022-10-07T06:34:40.620Z,7.58
2022-10-07T06:37:08.317Z,7.50
2022-10-07T06:39:36.052Z,7.53
2022-10-07T06:42:03.742Z,7.63
2022-10-07T06:44:31.488Z,7.59
2022-10-07T06:46:59.218Z,7.54
2022-10-07T06:49:26.965Z,7.70
2022-10-07T06:51:56.043Z,7.91
2022-10-07T06:54:24.714Z,7.91
2022-10-07T06:56:52.422Z,7.88
2022-10-07T06:59:20.202Z,7.93
2022-10-07T07:01:47.949Z,7.88
2022-10-07T07:04:15.713Z,8.10
2022-10-07T07:06:43.742Z,8.15
2022-10-07T07:09:12.845Z,7.97
2022-10-07T07:11:43.421Z,7.82
2022-10-07T07:14:13.578Z,7.80
2022-10-07T07:16:41.953Z,7.84
2022-10-07T07:19:13.867Z,8.12
2022-10-07T07:21:42.027Z,8.18
2022-10-07T07:24:09.935Z,8.20
2022-10-07T07:26:40.362Z,8.46
2022-10-07T07:29:08.676Z,8.63
2022-10-07T07:31:37.537Z,8.70
2022-10-07T07:34:11.260Z,8.71
2022-10-07T07:36:41.117Z,8.89
2022-10-07T07:39:11.754Z,9.01
2022-10-07T07:41:45.986Z,9.17
2022-10-07T07:44:15.778Z,9.30
2022-10-07T07:46:45.022Z,9.49
2022-10-07T07:49:14.329Z,9.66
2022-10-07T07:51:43.461Z,9.74
2022-10-07T07:54:12.049Z,9.85
2022-10-07T07:56:41.222Z,9.87
2022-10-07T07:59:09.394Z,10.02
2022-10-07T08:01:37.143Z,10.18
2022-10-07T08:04:05.130Z,10.32
2022-10-07T08:06:33.090Z,10.50
2022-10-07T08:09:00.870Z,10.73
2022-10-07T08:11:29.330Z,10.92
2022-10-07T08:13:58.395Z,11.01
2022-10-07T08:16:28.691Z,11.17
2022-10-07T08:18:58.244Z,11.43
2022-10-07T08:21:32.827Z,11.57
2022-10-07T08:24:03.897Z,11.64
2022-10-07T08:26:33.653Z,11.82
2022-10-07T08:29:03.168Z,11.94
2022-10-07T08:31:31.062Z,12.10
2022-10-07T08:34:00.963Z,12.26
2022-10-07T08:36:31.741Z,12.45
2022-10-07T08:39:00.083Z,12.50
2022-10-07T08:41:42.308Z,12.72
2022-10-07T08:44:20.301Z,12.97
2022-10-07T08:47:00.092Z,13.20
2022-10-07T08:49:36.966Z,13.40
2022-10-07T08:52:18.169Z,13.66
2022-10-07T08:54:45.934Z,13.85
2022-10-07T08:57:37.269Z,14.04
2022-10-07T09:00:09.165Z,14.21
2022-10-07T09:02:44.053Z,14.27
2022-10-07T09:05:22.123Z,14.49
2022-10-07T09:07:52.420Z,14.59
2022-10-07T09:10:31.156Z,14.68
2022-10-07T09:13:03.625Z,14.87
2022-10-07T09:15:42.510Z,15.06
2022-10-07T09:18:19.554Z,15.23
2022-10-07T09:20:53.231Z,15.35
2022-10-07T09:23:25.240Z,15.54
2022-10-07T09:25:53.450Z,15.64
2022-10-07T09:28:25.065Z,15.84
2022-10-07T09:30:54.216Z,15.99
2022-10-07T09:33:24.159Z,16.06
2022-10-07T09:35:57.563Z,16.01
2022-10-07T09:38:33.407Z,16.04
2022-10-07T09:41:17.044Z,16.30
2022-10-07T09:43:54.566Z,16.39
2022-10-07T09:46:40.406Z,16.41
2022-10-07T09:49:08.823Z,16.74
2022-10-07T09:51:39.592Z,16.89
2022-10-07T09:54:19.506Z,17.06
2022-10-07T09:56:48.324Z,17.31
2022-10-07T09:59:21.595Z,17.38
2022-10-07T10:01:55.669Z,17.14
2022-10-07T10:04:29.294Z,17.39
2022-10-07T10:07:02.094Z,17.63
2022-10-07T10:09:30.023Z,17.44
2022-10-07T10:12:13.090Z,17.77
2022-10-07T10:14:49.822Z,17.77
2022-10-07T10:17:29.510Z,17.64
2022-10-07T10:20:17.738Z,17.78
2022-10-07T10:22:45.845Z,17.99
2022-10-07T10:25:32.821Z,18.12
2022-10-07T10:28:08.443Z,18.13
2022-10-07T10:30:41.657Z,17.94
2022-10-07T10:33:20.790Z,18.12
2022-10-07T10:35:57.287Z,18.19
2022-10-07T10:38:35.189Z,18.37
2022-10-07T10:41:10.527Z,18.25
2022-10-07T10:44:04.555Z,18.52
2022-10-07T10:46:47.277Z,18.36
2022-10-07T10:49:26.003Z,18.38
2022-10-07T10:52:21.105Z,18.56
2022-10-07T10:55:01.176Z,18.58
2022-10-07T10:57:38.539Z,18.57
2022-10-07T11:00:11.182Z,18.45
2022-10-07T11:03:02.272Z,18.75
2022-10-07T11:05:33.681Z,18.60
2022-10-07T11:08:06.385Z,18.56
2022-10-07T11:10:38.405Z,18.82
2022-10-07T11:13:22.456Z,18.88
2022-10-07T11:15:56.954Z,19.09
2022-10-07T11:18:30.995Z,18.90
2022-10-07T11:21:02.786Z,19.14
2022-10-07T11:23:48.508Z,18.95
2022-10-07T11:26:22.614Z,19.01
2022-10-07T11:28:52.658Z,19.11
2022-10-07T11:31:30.519Z,19.12
2022-10-07T11:34:11.916Z,18.84
2022-10-07T11:36:52.588Z,19.24
2022-10-07T11:39:20.446Z,19.49
2022-10-07T11:41:54.233Z,19.57
2022-10-07T11:44:27.715Z,19.69
2022-10-07T11:46:58.977Z,19.69
2022-10-07T11:49:32.818Z,19.43
2022-10-07T11:52:05.698Z,19.23
2022-10-07T11:54:42.265Z,19.39
2022-10-07T11:57:22.008Z,19.47
2022-10-07T11:59:52.364Z,19.59
2022-10-07T12:02:44.939Z,19.70
2022-10-07T12:06:00.763Z,19.57
2022-10-07T12:08:33.105Z,19.41
2022-10-07T12:11:43.714Z,19.62
2022-10-07T12:14:33.090Z,19.60
2022-10-07T12:17:28.139Z,19.81
2022-10-07T12:20:33.075Z,20.22
2022-10-07T12:23:49.864Z,19.59
2022-10-07T12:26:52.764Z,20.06
2022-10-07T12:29:33.506Z,20.16
2022-10-07T12:32:01.620Z,20.09
2022-10-07T12:34:36.497Z,20.09
2022-10-07T12:37:43.399Z,20.36
2022-10-07T12:40:18.139Z,20.83
2022-10-07T12:42:54.668Z,20.74
2022-10-07T12:45:25.722Z,20.50
2022-10-07T12:47:57.887Z,20.51
2022-10-07T12:50:26.639Z,20.68
2022-10-07T12:52:58.692Z,21.04
2022-10-07T12:55:32.299Z,21.41
2022-10-07T12:58:17.362Z,21.25
2022-10-07T13:00:59.825Z,21.19
2022-10-07T13:04:03.069Z,21.48
2022-10-07T13:07:18.109Z,21.16
2022-10-07T13:10:26.745Z,21.58
2022-10-07T13:12:56.965Z,21.62
2022-10-07T13:15:41.344Z,21.75
2022-10-07T13:18:20.038Z,21.31
2022-10-07T13:21:10.894Z,21.71
2022-10-07T13:23:38.654Z,22.06
2022-10-07T13:26:06.636Z,21.64
2022-10-07T13:28:39.604Z,22.14
2022-10-07T13:31:15.678Z,21.67
2022-10-07T13:33:44.431Z,21.93
2022-10-07T13:36:18.758Z,22.09
2022-10-07T13:38:47.941Z,22.03
2022-10-07T13:41:24.661Z,22.30
2022-10-07T13:43:55.952Z,22.29
2022-10-07T13:46:27.553Z,22.67
2022-10-07T13:48:57.009Z,22.64
2022-10-07T13:51:36.576Z,22.31
2022-10-07T13:54:07.821Z,22.33
2022-10-07T13:56:40.760Z,22.38
2022-10-07T13:59:18.038Z,22.22
2022-10-07T14:01:49.712Z,22.48
2022-10-07T14:04:26.200Z,21.88
2022-10-07T14:07:00.304Z,22.09
2022-10-07T14:09:45.088Z,22.26
2022-10-07T14:12:16.018Z,22.21
2022-10-07T14:14:46.012Z,22.85
2022-10-07T14:17:28.454Z,22.06
2022-10-07T14:20:00.123Z,22.31
2022-10-07T14:22:33.987Z,22.36
2022-10-07T14:25:04.281Z,22.31
2022-10-07T14:27:53.539Z,22.66
2022-10-07T14:30:56.340Z,22.67
2022-10-07T14:33:48.351Z,21.97
2022-10-07T14:36:18.438Z,21.90
2022-10-07T14:38:47.818Z,22.23
2022-10-07T14:41:18.130Z,22.28
2022-10-07T14:43:47.836Z,22.36
2022-10-07T14:46:18.903Z,22.06
2022-10-07T14:48:49.219Z,21.71
2022-10-07T14:51:20.009Z,21.91
2022-10-07T14:53:50.519Z,22.20
2022-10-07T14:56:28.471Z,22.26
2022-10-07T14:58:56.763Z,22.25
2022-10-07T15:01:24.932Z,21.33
2022-10-07T15:03:54.050Z,21.59
2022-10-07T15:06:21.938Z,21.19
2022-10-07T15:08:50.079Z,21.09
2022-10-07T15:11:19.745Z,21.16
2022-10-07T15:13:48.496Z,21.12
2022-10-07T15:16:18.457Z,21.30
2022-10-07T15:18:51.833Z,21.54
2022-10-07T15:21:22.264Z,21.39
2022-10-07T15:23:53.150Z,21.86
2022-10-07T15:26:24.039Z,21.74
2022-10-07T15:28:53.402Z,21.87
2022-10-07T15:31:21.207Z,21.93
2022-10-07T15:33:49.256Z,21.27
2022-10-07T15:36:17.736Z,21.27
2022-10-07T15:38:46.930Z,20.80
2022-10-07T15:41:32.745Z,21.15
2022-10-07T15:44:01.560Z,21.55
2022-10-07T15:46:29.535Z,21.13
2022-10-07T15:48:59.214Z,21.44
2022-10-07T15:51:29.406Z,21.17
2022-10-07T15:53:58.909Z,21.01
2022-10-07T15:56:26.671Z,21.04
2022-10-07T15:58:54.364Z,21.19
2022-10-07T16:01:22.188Z,21.39
2022-10-07T16:03:50.780Z,21.46
2022-10-07T16:06:21.165Z,21.17
2022-10-07T16:08:49.310Z,21.28
2022-10-07T16:11:19.122Z,21.15
2022-10-07T16:13:47.950Z,21.07
2022-10-07T16:16:17.581Z,20.64
2022-10-07T16:18:47.125Z,20.24
2022-10-07T16:21:17.318Z,20.82
2022-10-07T16:23:47.291Z,20.69
2022-10-07T16:26:17.405Z,20.32
2022-10-07T16:29:05.841Z,20.40
2022-10-07T16:31:35.647Z,20.14
2022-10-07T16:34:04.072Z,20.06
2022-10-07T16:36:32.267Z,19.99
2022-10-07T16:39:01.259Z,20.03
2022-10-07T16:41:28.967Z,20.07
2022-10-07T16:43:59.248Z,19.77
2022-10-07T16:46:27.597Z,19.68
2022-10-07T16:48:55.960Z,19.63
2022-10-07T16:51:25.238Z,19.76
2022-10-07T16:53:55.677Z,19.43
2022-10-07T16:56:24.202Z,19.61
2022-10-07T16:58:57.251Z,19.57
2022-10-07T17:01:27.576Z,19.48
2022-10-07T17:03:57.302Z,19.49
2022-10-07T17:06:27.079Z,19.51
2022-10-07T17:08:56.692Z,19.44
2022-10-07T17:11:31.370Z,19.39
2022-10-07T17:14:00.871Z,19.26
2022-10-07T17:16:32.531Z,19.13
2022-10-07T17:19:00.822Z,19.02
2022-10-07T17:21:29.048Z,18.97
2022-10-07T17:23:58.535Z,18.92
2022-10-07T17:26:27.826Z,18.87
2022-10-07T17:29:03.260Z,18.71
2022-10-07T17:31:33.805Z,18.60
2022-10-07T17:34:03.183Z,18.57
2022-10-07T17:36:32.182Z,18.50
2022-10-07T17:39:00.362Z,18.43
2022-10-07T17:41:29.654Z,18.34
2022-10-07T17:43:58.850Z,18.24
2022-10-07T17:46:28.111Z,18.10
2022-10-07T17:48:59.157Z,17.91
2022-10-07T17:51:28.953Z,17.76
2022-10-07T17:53:58.095Z,17.61
2022-10-07T17:56:26.330Z,17.53
2022-10-07T17:58:54.387Z,17.33
2022-10-07T18:01:26.379Z,17.25
2022-10-07T18:03:56.179Z,17.14
2022-10-07T18:06:26.809Z,17.12
2022-10-07T18:08:54.788Z,16.99
2022-10-07T18:11:22.686Z,16.86
2022-10-07T18:14:07.907Z,16.84
2022-10-07T18:16:36.775Z,16.67
2022-10-07T18:19:04.566Z,16.67
2022-10-07T18:21:33.682Z,16.65
2022-10-07T18:24:01.570Z,16.56
2022-10-07T18:26:29.667Z,16.48
2022-10-07T18:28:58.067Z,16.37
2022-10-07T18:31:26.913Z,16.35
2022-10-07T18:33:54.731Z,16.36
2022-10-07T18:36:22.533Z,16.17
2022-10-07T18:38:51.629Z,16.14
2022-10-07T18:41:19.607Z,16.07
2022-10-07T18:43:47.639Z,16.04
2022-10-07T18:46:17.470Z,15.96
2022-10-07T18:48:47.942Z,15.83
2022-10-07T18:51:16.749Z,15.73
2022-10-07T18:53:47.412Z,15.71
2022-10-07T18:56:18.765Z,15.66
2022-10-07T18:58:48.485Z,15.59
2022-10-07T19:01:18.385Z,15.54
2022-10-07T19:03:46.617Z,15.45
2022-10-07T19:06:17.774Z,15.39
2022-10-07T19:08:46.034Z,15.29
2022-10-07T19:11:16.670Z,15.22
2022-10-07T19:13:51.901Z,15.22
2022-10-07T19:16:22.178Z,15.17
2022-10-07T19:18:52.476Z,15.08
2022-10-07T19:21:20.984Z,14.99
2022-10-07T19:23:49.539Z,14.91
2022-10-07T19:26:21.759Z,14.92
2022-10-07T19:28:50.818Z,14.89
2022-10-07T19:31:23.114Z,14.85
2022-10-07T19:33:52.663Z,14.84
2022-10-07T19:36:21.842Z,14.84
2022-10-07T19:38:52.419Z,14.82
2022-10-07T19:41:23.961Z,14.71
2022-10-07T19:43:52.762Z,14.70
2022-10-07T19:46:22.283Z,14.57
2022-10-07T19:48:50.450Z,14.61
2022-10-07T19:51:20.065Z,14.50
2022-10-07T19:53:48.415Z,14.53
2022-10-07T19:56:20.136Z,14.57
2022-10-07T19:58:51.720Z,14.46
2022-10-07T20:01:21.753Z,14.41
2022-10-07T20:03:50.074Z,14.41
2022-10-07T20:06:17.793Z,14.40
2022-10-07T20:08:47.310Z,14.32
2022-10-07T20:11:16.150Z,14.38
2022-10-07T20:13:43.870Z,14.30
2022-10-07T20:16:16.203Z,14.32
2022-10-07T20:18:44.008Z,14.23
2022-10-07T20:21:15.963Z,14.14
2022-10-07T20:23:45.529Z,14.20
2022-10-07T20:26:16.029Z,14.20
2022-10-07T20:28:43.789Z,14.28
2022-10-07T20:31:14.997Z,14.23
2022-10-07T20:33:44.589Z,14.22
2022-10-07T20:36:15.218Z,14.20
2022-10-07T20:39:00.864Z,14.22
2022-10-07T20:41:46.654Z,14.05
2022-10-07T20:44:16.225Z,14.03
2022-10-07T20:46:45.548Z,14.09
2022-10-07T20:49:22.516Z,14.15
2022-10-07T20:51:50.462Z,14.13
2022-10-07T20:54:18.604Z,14.10
2022-10-07T20:56:46.911Z,14.11
2022-10-07T20:59:15.069Z,14.09
2022-10-07T21:01:44.217Z,14.03
2022-10-07T21:04:15.538Z,14.07
2022-10-07T21:06:43.831Z,14.02
2022-10-07T21:09:12.108Z,13.88
2022-10-07T21:11:39.900Z,13.85
2022-10-07T21:14:07.661Z,13.80
2022-10-07T21:16:36.358Z,13.81
2022-10-07T21:19:04.523Z,13.85
2022-10-07T21:21:33.824Z,13.85
2022-10-07T21:24:01.585Z,13.92
2022-10-07T21:26:29.280Z,13.96
2022-10-07T21:28:56.968Z,14.02
2022-10-07T21:31:25.452Z,13.99
2022-10-07T21:33:53.423Z,13.94
2022-10-07T21:36:24.173Z,13.92
2022-10-07T21:38:58.230Z,13.92
2022-10-07T21:41:30.974Z,13.83
2022-10-07T21:43:59.344Z,13.70
2022-10-07T21:46:29.301Z,13.63
2022-10-07T21:48:57.312Z,13.66
2022-10-07T21:51:26.961Z,13.59
2022-10-07T21:53:58.054Z,13.56
2022-10-07T21:56:27.381Z,13.48
2022-10-07T21:58:55.114Z,13.51
2022-10-07T22:01:24.450Z,13.46
2022-10-07T22:03:55.449Z,13.43
2022-10-07T22:06:44.081Z,13.46
2022-10-07T22:09:13.802Z,13.37
2022-10-07T22:11:41.702Z,13.34
2022-10-07T22:14:12.743Z,13.24
2022-10-07T22:16:41.761Z,13.15
2022-10-07T22:19:10.677Z,13.18
2022-10-07T22:21:40.173Z,13.13
2022-10-07T22:24:09.416Z,13.08
2022-10-07T22:26:40.731Z,13.04
2022-10-07T22:29:10.425Z,13.06
2022-10-07T22:31:38.845Z,13.13
2022-10-07T22:34:07.656Z,13.22
2022-10-07T22:36:35.296Z,13.32
2022-10-07T22:39:03.125Z,13.43
2022-10-07T22:41:30.896Z,13.41
2022-10-07T22:44:00.021Z,13.39
2022-10-07T22:46:29.712Z,13.43
2022-10-07T22:48:58.706Z,13.40
2022-10-07T22:51:28.446Z,13.40
2022-10-07T22:53:57.634Z,13.41
2022-10-07T22:56:27.878Z,13.49
2022-10-07T22:58:58.787Z,13.54
2022-10-07T23:01:29.617Z,13.55
2022-10-07T23:03:58.713Z,13.49
2022-10-07T23:06:26.571Z,13.50
2022-10-07T23:08:55.028Z,13.48
2022-10-07T23:11:24.467Z,13.55
2022-10-07T23:13:52.664Z,13.69
2022-10-07T23:16:22.641Z,13.77
2022-10-07T23:18:53.467Z,13.79
2022-10-07T23:21:23.437Z,13.84
2022-10-07T23:23:52.909Z,13.79
2022-10-07T23:26:23.251Z,13.74
2022-10-07T23:28:52.464Z,13.69
2022-10-07T23:31:22.724Z,13.58
2022-10-07T23:33:52.906Z,13.44
2022-10-07T23:36:22.184Z,13.35
2022-10-07T23:38:51.211Z,13.25
2022-10-07T23:41:21.045Z,13.08
2022-10-07T23:43:49.687Z,12.97
2022-10-07T23:46:18.793Z,12.98
2022-10-07T23:48:47.294Z,12.98
2022-10-07T23:51:19.759Z,12.93
2022-10-07T23:53:48.191Z,12.95
2022-10-07T23:56:18.493Z,12.75
2022-10-07T23:58:46.591Z,12.47
